sensor_id;sensor_type;location;lat;lon;timestamp;temperature;humidity
9486;DHT22;4781;48.776;9.200;2022-12-18T00:02:12;-7.50;99.90
9486;DHT22;4781;48.776;9.200;2022-12-18T00:04:40;-7.50;99.90
9486;DHT22;4781;48.776;9.200;2022-12-18T00:07:09;-7.50;99.90
9486;DHT22;4781;48.776;9.200;2022-12-18T00:09:37;-7.50;99.90
9486;DHT22;4781;48.776;9.200;2022-12-18T00:12:06;-7.60;99.90
9486;DHT22;4781;48.776;9.200;2022-12-18T00:14:34;-7.60;99.90
9486;DHT22;4781;48.776;9.200;2022-12-18T00:17:03;-7.60;99.90
9486;DHT22;4781;48.776;9.200;2022-12-18T00:19:31;-7.60;99.90
9486;DHT22;4781;48.776;9.200;2022-12-18T00:22:00;-7.60;99.90
9486;DHT22;4781;48.776;9.200;2022-12-18T00:24:28;-7.60;99.90
9486;DHT22;4781;48.776;9.200;2022-12-18T00:26:56;-7.60;99.90
9486;DHT22;4781;48.776;9.200;2022-12-18T00:29:25;-7.60;99.90
9486;DHT22;4781;48.776;9.200;2022-12-18T00:31:53;-7.60;99.90
9486;DHT22;4781;48.776;9.200;2022-12-18T00:34:21;-7.50;99.90
9486;DHT22;4781;48.776;9.200;2022-12-18T00:36:50;-7.50;99.90
9486;DHT22;4781;48.776;9.200;2022-12-18T00:39:18;-7.60;99.90
9486;DHT22;4781;48.776;9.200;2022-12-18T00:41:47;-7.60;99.90
9486;DHT22;4781;48.776;9.200;2022-12-18T00:44:33;-7.60;99.90
9486;DHT22;4781;48.776;9.200;2022-12-18T00:47:02;-7.60;99.90
9486;DHT22;4781;48.776;9.200;2022-12-18T00:49:31;-7.60;99.90
9486;DHT22;4781;48.776;9.200;2022-12-18T00:51:59;-7.60;99.90
9486;DHT22;4781;48.776;9.200;2022-12-18T00:54:28;-7.50;99.90
9486;DHT22;4781;48.776;9.200;2022-12-18T00:56:56;-7.50;99.90
9486;DHT22;4781;48.776;9.200;2022-12-18T00:59:24;-7.50;99.90
9486;DHT22;4781;48.776;9.200;2022-12-18T01:01:53;-7.50;99.90
9486;DHT22;4781;48.776;9.200;2022-12-18T01:04:21;-7.50;99.90
9486;DHT22;4781;48.776;9.200;2022-12-18T01:06:50;-7.50;99.90
9486;DHT22;4781;48.776;9.200;2022-12-18T01:09:18;-7.50;99.90
9486;DHT22;4781;48.776;9.200;2022-12-18T01:11:46;-7.40;99.90
9486;DHT22;4781;48.776;9.200;2022-12-18T01:14:15;-7.40;99.90
9486;DHT22;4781;48.776;9.200;2022-12-18T01:16:44;-7.40;99.90
9486;DHT22;4781;48.776;9.200;2022-12-18T01:19:12;-7.40;99.90
9486;DHT22;4781;48.776;9.200;2022-12-18T01:21:40;-7.40;99.90
9486;DHT22;4781;48.776;9.200;2022-12-18T01:24:11;-7.30;99.90
9486;DHT22;4781;48.776;9.200;2022-12-18T01:26:40;-7.30;99.90
9486;DHT22;4781;48.776;9.200;2022-12-18T01:29:08;-7.30;99.90
9486;DHT22;4781;48.776;9.200;2022-12-18T01:31:36;-7.40;99.90
9486;DHT22;4781;48.776;9.200;2022-12-18T01:34:05;-7.40;99.90
9486;DHT22;4781;48.776;9.200;2022-12-18T01:36:36;-7.40;99.90
9486;DHT22;4781;48.776;9.200;2022-12-18T01:39:10;-7.40;99.90
9486;DHT22;4781;48.776;9.200;2022-12-18T01:41:41;-7.40;99.90
9486;DHT22;4781;48.776;9.200;2022-12-18T01:44:51;-7.10;99.90
9486;DHT22;4781;48.776;9.200;2022-12-18T01:50:22;-7.40;99.90
9486;DHT22;4781;48.776;9.200;2022-12-18T01:53:04;-7.40;99.90
9486;DHT22;4781;48.776;9.200;2022-12-18T01:55:48;-7.40;99.90
9486;DHT22;4781;48.776;9.200;2022-12-18T01:58:29;-7.40;99.90
9486;DHT22;4781;48.776;9.200;2022-12-18T02:01:00;-7.30;99.90
9486;DHT22;4781;48.776;9.200;2022-12-18T02:03:28;-7.30;99.90
9486;DHT22;4781;48.776;9.200;2022-12-18T02:06:10;-7.30;99.90
9486;DHT22;4781;48.776;9.200;2022-12-18T02:08:48;-7.30;99.90
9486;DHT22;4781;48.776;9.200;2022-12-18T02:11:53;-7.20;99.90
9486;DHT22;4781;48.776;9.200;2022-12-18T02:17:22;-7.20;99.90
9486;DHT22;4781;48.776;9.200;2022-12-18T02:20:35;-7.20;99.90
9486;DHT22;4781;48.776;9.200;2022-12-18T02:25:51;-7.10;99.90
9486;DHT22;4781;48.776;9.200;2022-12-18T02:28:28;-7.20;99.90
9486;DHT22;4781;48.776;9.200;2022-12-18T02:30:59;-7.10;99.90
9486;DHT22;4781;48.776;9.200;2022-12-18T02:33:31;-7.10;99.90
9486;DHT22;4781;48.776;9.200;2022-12-18T02:36:01;-7.20;99.90
9486;DHT22;4781;48.776;9.200;2022-12-18T02:38:52;-7.20;99.90
9486;DHT22;4781;48.776;9.200;2022-12-18T02:41:25;-7.20;99.90
9486;DHT22;4781;48.776;9.200;2022-12-18T02:44:07;-7.10;99.90
9486;DHT22;4781;48.776;9.200;2022-12-18T02:46:31;-7.20;99.90
9486;DHT22;4781;48.776;9.200;2022-12-18T02:52:35;-7.10;99.90
9486;DHT22;4781;48.776;9.200;2022-12-18T02:55:35;-7.20;99.90
9486;DHT22;4781;48.776;9.200;2022-12-18T02:58:17;-7.20;99.90
9486;DHT22;4781;48.776;9.200;2022-12-18T03:01:02;-7.20;99.90
9486;DHT22;4781;48.776;9.200;2022-12-18T03:03:45;-7.20;99.90
9486;DHT22;4781;48.776;9.200;2022-12-18T03:06:25;-7.20;99.90
9486;DHT22;4781;48.776;9.200;2022-12-18T03:08:54;-7.10;99.90
9486;DHT22;4781;48.776;9.200;2022-12-18T03:11:25;-7.10;99.90
9486;DHT22;4781;48.776;9.200;2022-12-18T03:14:15;-7.20;99.90
9486;DHT22;4781;48.776;9.200;2022-12-18T03:16:45;-7.20;99.90
9486;DHT22;4781;48.776;9.200;2022-12-18T03:19:18;-7.20;99.90
9486;DHT22;4781;48.776;9.200;2022-12-18T03:21:51;-7.20;99.90
9486;DHT22;4781;48.776;9.200;2022-12-18T03:24:21;-7.20;99.90
9486;DHT22;4781;48.776;9.200;2022-12-18T03:26:53;-7.20;99.90
9486;DHT22;4781;48.776;9.200;2022-12-18T03:29:38;-7.20;99.90
9486;DHT22;4781;48.776;9.200;2022-12-18T03:32:11;-7.20;99.90
9486;DHT22;4781;48.776;9.200;2022-12-18T03:34:42;-7.30;99.90
9486;DHT22;4781;48.776;9.200;2022-12-18T03:37:12;-7.20;99.90
9486;DHT22;4781;48.776;9.200;2022-12-18T03:39:40;-7.30;99.90
9486;DHT22;4781;48.776;9.200;2022-12-18T03:45:30;-7.30;99.90
9486;DHT22;4781;48.776;9.200;2022-12-18T03:48:06;-7.30;99.90
9486;DHT22;4781;48.776;9.200;2022-12-18T03:50:51;-7.30;99.90
9486;DHT22;4781;48.776;9.200;2022-12-18T03:53:39;-7.40;99.90
9486;DHT22;4781;48.776;9.200;2022-12-18T03:56:09;-7.40;99.90
9486;DHT22;4781;48.776;9.200;2022-12-18T03:58:40;-7.40;99.90
9486;DHT22;4781;48.776;9.200;2022-12-18T04:01:10;-7.40;99.90
9486;DHT22;4781;48.776;9.200;2022-12-18T04:03:41;-7.40;99.90
9486;DHT22;4781;48.776;9.200;2022-12-18T04:06:11;-7.50;99.90
9486;DHT22;4781;48.776;9.200;2022-12-18T04:08:41;-7.50;99.90
9486;DHT22;4781;48.776;9.200;2022-12-18T04:11:09;-7.50;99.90
9486;DHT22;4781;48.776;9.200;2022-12-18T04:13:38;-7.50;99.90
9486;DHT22;4781;48.776;9.200;2022-12-18T04:16:07;-7.60;99.90
9486;DHT22;4781;48.776;9.200;2022-12-18T04:18:36;-7.50;99.90
9486;DHT22;4781;48.776;9.200;2022-12-18T04:21:04;-7.60;99.90
9486;DHT22;4781;48.776;9.200;2022-12-18T04:23:32;-7.60;99.90
9486;DHT22;4781;48.776;9.200;2022-12-18T04:26:01;-7.70;99.90
9486;DHT22;4781;48.776;9.200;2022-12-18T04:28:29;-7.70;99.90
9486;DHT22;4781;48.776;9.200;2022-12-18T04:30:58;-7.70;99.90
9486;DHT22;4781;48.776;9.200;2022-12-18T04:33:26;-7.70;99.90
9486;DHT22;4781;48.776;9.200;2022-12-18T04:35:54;-7.60;99.90
9486;DHT22;4781;48.776;9.200;2022-12-18T04:38:23;-7.60;99.90
9486;DHT22;4781;48.776;9.200;2022-12-18T04:40:51;-7.70;99.90
9486;DHT22;4781;48.776;9.200;2022-12-18T04:43:20;-7.70;99.90
9486;DHT22;4781;48.776;9.200;2022-12-18T04:45:48;-7.70;99.90
9486;DHT22;4781;48.776;9.200;2022-12-18T04:48:17;-7.70;99.90
9486;DHT22;4781;48.776;9.200;2022-12-18T04:50:47;-7.70;99.90
9486;DHT22;4781;48.776;9.200;2022-12-18T04:53:15;-7.70;99.90
9486;DHT22;4781;48.776;9.200;2022-12-18T04:55:44;-7.70;99.90
9486;DHT22;4781;48.776;9.200;2022-12-18T04:58:12;-7.70;99.90
9486;DHT22;4781;48.776;9.200;2022-12-18T05:00:40;-7.80;99.90
9486;DHT22;4781;48.776;9.200;2022-12-18T05:03:09;-7.80;99.90
9486;DHT22;4781;48.776;9.200;2022-12-18T05:05:37;-7.80;99.90
9486;DHT22;4781;48.776;9.200;2022-12-18T05:08:06;-7.90;99.90
9486;DHT22;4781;48.776;9.200;2022-12-18T05:10:34;-7.90;99.90
9486;DHT22;4781;48.776;9.200;2022-12-18T05:13:02;-7.80;99.90
9486;DHT22;4781;48.776;9.200;2022-12-18T05:15:31;-7.80;99.90
9486;DHT22;4781;48.776;9.200;2022-12-18T05:18:01;-7.80;99.90
9486;DHT22;4781;48.776;9.200;2022-12-18T05:20:30;-7.80;99.90
9486;DHT22;4781;48.776;9.200;2022-12-18T05:22:59;-7.90;99.90
9486;DHT22;4781;48.776;9.200;2022-12-18T05:25:27;-7.90;99.90
9486;DHT22;4781;48.776;9.200;2022-12-18T05:27:55;-7.90;99.90
9486;DHT22;4781;48.776;9.200;2022-12-18T05:30:24;-7.90;99.90
9486;DHT22;4781;48.776;9.200;2022-12-18T05:32:52;-8.00;99.90
9486;DHT22;4781;48.776;9.200;2022-12-18T05:35:21;-8.00;99.90
9486;DHT22;4781;48.776;9.200;2022-12-18T05:37:49;-8.10;99.90
9486;DHT22;4781;48.776;9.200;2022-12-18T05:40:17;-8.10;99.90
9486;DHT22;4781;48.776;9.200;2022-12-18T05:42:46;-8.20;99.90
9486;DHT22;4781;48.776;9.200;2022-12-18T05:45:14;-8.20;99.90
9486;DHT22;4781;48.776;9.200;2022-12-18T05:47:43;-8.30;99.90
9486;DHT22;4781;48.776;9.200;2022-12-18T05:50:11;-8.30;99.90
9486;DHT22;4781;48.776;9.200;2022-12-18T05:52:39;-8.40;99.90
9486;DHT22;4781;48.776;9.200;2022-12-18T05:55:08;-8.50;99.90
9486;DHT22;4781;48.776;9.200;2022-12-18T05:57:36;-8.50;99.90
9486;DHT22;4781;48.776;9.200;2022-12-18T06:00:05;-8.60;99.90
9486;DHT22;4781;48.776;9.200;2022-12-18T06:02:34;-8.70;99.90
9486;DHT22;4781;48.776;9.200;2022-12-18T06:05:02;-8.70;99.90
9486;DHT22;4781;48.776;9.200;2022-12-18T06:07:31;-8.70;99.90
9486;DHT22;4781;48.776;9.200;2022-12-18T06:09:59;-8.80;99.90
9486;DHT22;4781;48.776;9.200;2022-12-18T06:12:27;-8.80;99.90
9486;DHT22;4781;48.776;9.200;2022-12-18T06:14:56;-8.80;99.90
9486;DHT22;4781;48.776;9.200;2022-12-18T06:17:29;-8.80;99.90
9486;DHT22;4781;48.776;9.200;2022-12-18T06:19:58;-8.80;99.90
9486;DHT22;4781;48.776;9.200;2022-12-18T06:22:27;-8.80;99.90
9486;DHT22;4781;48.776;9.200;2022-12-18T06:24:57;-8.80;99.90
9486;DHT22;4781;48.776;9.200;2022-12-18T06:27:26;-8.80;99.90
9486;DHT22;4781;48.776;9.200;2022-12-18T06:29:54;-8.90;99.90
9486;DHT22;4781;48.776;9.200;2022-12-18T06:32:23;-9.00;99.90
9486;DHT22;4781;48.776;9.200;2022-12-18T06:34:51;-9.00;99.90
9486;DHT22;4781;48.776;9.200;2022-12-18T06:37:20;-9.00;99.90
9486;DHT22;4781;48.776;9.200;2022-12-18T06:39:50;-9.00;99.90
9486;DHT22;4781;48.776;9.200;2022-12-18T06:42:19;-9.00;99.90
9486;DHT22;4781;48.776;9.200;2022-12-18T06:44:47;-9.10;99.90
9486;DHT22;4781;48.776;9.200;2022-12-18T06:47:18;-9.00;99.90
9486;DHT22;4781;48.776;9.200;2022-12-18T06:49:46;-9.10;99.90
9486;DHT22;4781;48.776;9.200;2022-12-18T06:52:15;-9.00;99.90
9486;DHT22;4781;48.776;9.200;2022-12-18T06:54:43;-9.00;99.90
9486;DHT22;4781;48.776;9.200;2022-12-18T06:57:11;-9.00;99.90
9486;DHT22;4781;48.776;9.200;2022-12-18T06:59:40;-9.00;99.90
9486;DHT22;4781;48.776;9.200;2022-12-18T07:02:11;-8.90;99.90
9486;DHT22;4781;48.776;9.200;2022-12-18T07:04:39;-8.90;99.90
9486;DHT22;4781;48.776;9.200;2022-12-18T07:07:08;-8.90;99.90
9486;DHT22;4781;48.776;9.200;2022-12-18T07:09:36;-8.90;99.90
9486;DHT22;4781;48.776;9.200;2022-12-18T07:12:04;-8.90;99.90
9486;DHT22;4781;48.776;9.200;2022-12-18T07:14:34;-8.90;99.90
9486;DHT22;4781;48.776;9.200;2022-12-18T07:17:03;-8.80;99.90
9486;DHT22;4781;48.776;9.200;2022-12-18T07:19:31;-8.80;99.90
9486;DHT22;4781;48.776;9.200;2022-12-18T07:21:59;-8.80;99.90
9486;DHT22;4781;48.776;9.200;2022-12-18T07:24:28;-8.80;99.90
9486;DHT22;4781;48.776;9.200;2022-12-18T07:26:56;-8.80;99.90
9486;DHT22;4781;48.776;9.200;2022-12-18T07:29:25;-8.70;99.90
9486;DHT22;4781;48.776;9.200;2022-12-18T07:31:53;-8.70;99.90
9486;DHT22;4781;48.776;9.200;2022-12-18T07:34:21;-8.70;99.90
9486;DHT22;4781;48.776;9.200;2022-12-18T07:36:50;-8.80;99.90
9486;DHT22;4781;48.776;9.200;2022-12-18T07:39:18;-8.70;99.90
9486;DHT22;4781;48.776;9.200;2022-12-18T07:41:47;-8.70;99.90
9486;DHT22;4781;48.776;9.200;2022-12-18T07:44:17;-8.70;99.90
9486;DHT22;4781;48.776;9.200;2022-12-18T07:46:45;-8.70;99.90
9486;DHT22;4781;48.776;9.200;2022-12-18T07:49:13;-8.60;99.90
9486;DHT22;4781;48.776;9.200;2022-12-18T07:51:42;-8.60;99.90
9486;DHT22;4781;48.776;9.200;2022-12-18T07:54:12;-8.60;99.90
9486;DHT22;4781;48.776;9.200;2022-12-18T07:56:40;-8.50;99.90
9486;DHT22;4781;48.776;9.200;2022-12-18T07:59:09;-8.50;99.90
9486;DHT22;4781;48.776;9.200;2022-12-18T08:01:37;-8.50;99.90
9486;DHT22;4781;48.776;9.200;2022-12-18T08:04:05;-8.40;99.90
9486;DHT22;4781;48.776;9.200;2022-12-18T08:06:34;-8.40;99.90
9486;DHT22;4781;48.776;9.200;2022-12-18T08:09:02;-8.40;99.90
9486;DHT22;4781;48.776;9.200;2022-12-18T08:11:31;-8.30;99.90
9486;DHT22;4781;48.776;9.200;2022-12-18T08:13:59;-8.30;99.90
9486;DHT22;4781;48.776;9.200;2022-12-18T08:16:28;-8.30;99.90
9486;DHT22;4781;48.776;9.200;2022-12-18T08:18:56;-8.20;99.90
9486;DHT22;4781;48.776;9.200;2022-12-18T08:21:27;-8.10;99.90
9486;DHT22;4781;48.776;9.200;2022-12-18T08:23:58;-8.10;99.90
9486;DHT22;4781;48.776;9.200;2022-12-18T08:26:29;-8.10;99.90
9486;DHT22;4781;48.776;9.200;2022-12-18T08:28:59;-8.00;99.90
9486;DHT22;4781;48.776;9.200;2022-12-18T08:31:29;-7.90;99.90
9486;DHT22;4781;48.776;9.200;2022-12-18T08:33:58;-7.80;99.90
9486;DHT22;4781;48.776;9.200;2022-12-18T08:36:26;-7.80;99.90
9486;DHT22;4781;48.776;9.200;2022-12-18T08:38:55;-7.70;99.90
9486;DHT22;4781;48.776;9.200;2022-12-18T08:41:24;-7.50;99.90
9486;DHT22;4781;48.776;9.200;2022-12-18T08:43:53;-7.50;99.90
9486;DHT22;4781;48.776;9.200;2022-12-18T08:46:41;-7.40;99.90
9486;DHT22;4781;48.776;9.200;2022-12-18T08:49:10;-7.30;99.90
9486;DHT22;4781;48.776;9.200;2022-12-18T08:51:39;-7.20;99.90
9486;DHT22;4781;48.776;9.200;2022-12-18T08:54:15;-7.20;99.90
9486;DHT22;4781;48.776;9.200;2022-12-18T08:56:40;-7.10;99.90
9486;DHT22;4781;48.776;9.200;2022-12-18T08:59:13;-7.00;99.90
9486;DHT22;4781;48.776;9.200;2022-12-18T09:01:38;-7.00;99.90
9486;DHT22;4781;48.776;9.200;2022-12-18T09:04:08;-6.90;99.90
9486;DHT22;4781;48.776;9.200;2022-12-18T09:06:37;-6.50;99.90
9486;DHT22;4781;48.776;9.200;2022-12-18T09:09:06;-6.70;99.90
9486;DHT22;4781;48.776;9.200;2022-12-18T09:11:34;-6.70;99.90
9486;DHT22;4781;48.776;9.200;2022-12-18T09:14:03;-6.60;99.90
9486;DHT22;4781;48.776;9.200;2022-12-18T09:16:32;-6.50;99.90
9486;DHT22;4781;48.776;9.200;2022-12-18T09:19:03;-6.40;99.90
9486;DHT22;4781;48.776;9.200;2022-12-18T09:21:34;-6.20;99.90
9486;DHT22;4781;48.776;9.200;2022-12-18T09:24:03;-6.10;99.90
9486;DHT22;4781;48.776;9.200;2022-12-18T09:26:31;-6.10;99.90
9486;DHT22;4781;48.776;9.200;2022-12-18T09:28:59;-5.90;99.90
9486;DHT22;4781;48.776;9.200;2022-12-18T09:31:28;-5.80;99.90
9486;DHT22;4781;48.776;9.200;2022-12-18T09:33:56;-5.70;99.90
9486;DHT22;4781;48.776;9.200;2022-12-18T09:36:25;-5.60;99.90
9486;DHT22;4781;48.776;9.200;2022-12-18T09:38:53;-5.40;99.90
9486;DHT22;4781;48.776;9.200;2022-12-18T09:44:30;-5.10;99.90
9486;DHT22;4781;48.776;9.200;2022-12-18T09:47:07;-4.80;99.90
9486;DHT22;4781;48.776;9.200;2022-12-18T09:49:44;-4.70;99.90
9486;DHT22;4781;48.776;9.200;2022-12-18T09:52:33;-4.60;99.90
9486;DHT22;4781;48.776;9.200;2022-12-18T09:55:28;-4.50;99.90
9486;DHT22;4781;48.776;9.200;2022-12-18T10:00:43;-4.30;99.90
9486;DHT22;4781;48.776;9.200;2022-12-18T10:03:15;-4.30;99.90
9486;DHT22;4781;48.776;9.200;2022-12-18T10:11:43;-3.70;99.90
9486;DHT22;4781;48.776;9.200;2022-12-18T10:14:23;-3.50;99.90
9486;DHT22;4781;48.776;9.200;2022-12-18T10:17:26;-3.40;99.90
9486;DHT22;4781;48.776;9.200;2022-12-18T10:26:03;-2.80;99.90
9486;DHT22;4781;48.776;9.200;2022-12-18T10:28:37;-2.70;99.90
9486;DHT22;4781;48.776;9.200;2022-12-18T10:31:19;-2.50;99.90
9486;DHT22;4781;48.776;9.200;2022-12-18T10:33:48;-2.40;99.90
9486;DHT22;4781;48.776;9.200;2022-12-18T10:36:17;-2.30;99.90
9486;DHT22;4781;48.776;9.200;2022-12-18T10:38:45;-2.20;99.90
9486;DHT22;4781;48.776;9.200;2022-12-18T10:44:17;-1.80;99.90
9486;DHT22;4781;48.776;9.200;2022-12-18T10:46:49;-1.70;99.90
9486;DHT22;4781;48.776;9.200;2022-12-18T10:49:21;-1.70;99.90
9486;DHT22;4781;48.776;9.200;2022-12-18T10:52:03;-1.70;99.90
9486;DHT22;4781;48.776;9.200;2022-12-18T10:54:46;-1.60;99.90
9486;DHT22;4781;48.776;9.200;2022-12-18T10:57:40;-1.40;99.90
9486;DHT22;4781;48.776;9.200;2022-12-18T11:06:14;-1.40;99.90
9486;DHT22;4781;48.776;9.200;2022-12-18T11:08:58;-1.20;99.90
9486;DHT22;4781;48.776;9.200;2022-12-18T11:11:28;-1.10;99.90
9486;DHT22;4781;48.776;9.200;2022-12-18T11:16:34;-1.10;99.90
9486;DHT22;4781;48.776;9.200;2022-12-18T11:21:57;-1.00;99.90
9486;DHT22;4781;48.776;9.200;2022-12-18T11:24:34;-0.80;99.90
9486;DHT22;4781;48.776;9.200;2022-12-18T11:29:52;-0.60;99.90
9486;DHT22;4781;48.776;9.200;2022-12-18T11:38:40;-0.60;99.90
9486;DHT22;4781;48.776;9.200;2022-12-18T11:41:31;-0.60;99.90
9486;DHT22;4781;48.776;9.200;2022-12-18T11:50:26;-0.80;99.90
9486;DHT22;4781;48.776;9.200;2022-12-18T11:53:03;-1.00;99.90
9486;DHT22;4781;48.776;9.200;2022-12-18T11:58:50;-1.00;99.90
9486;DHT22;4781;48.776;9.200;2022-12-18T12:04:10;-1.00;99.90
9486;DHT22;4781;48.776;9.200;2022-12-18T12:19:36;-1.30;99.90
9486;DHT22;4781;48.776;9.200;2022-12-18T12:22:29;-1.30;99.90
9486;DHT22;4781;48.776;9.200;2022-12-18T12:25:28;-1.50;99.90
9486;DHT22;4781;48.776;9.200;2022-12-18T12:28:36;-1.40;99.90
9486;DHT22;4781;48.776;9.200;2022-12-18T12:31:37;-1.50;99.90
9486;DHT22;4781;48.776;9.200;2022-12-18T12:37:12;-1.40;99.90
9486;DHT22;4781;48.776;9.200;2022-12-18T12:39:44;-1.30;99.90
9486;DHT22;4781;48.776;9.200;2022-12-18T12:42:33;-1.30;99.90
9486;DHT22;4781;48.776;9.200;2022-12-18T12:45:36;-1.30;99.90
9486;DHT22;4781;48.776;9.200;2022-12-18T12:48:33;-1.40;99.90
9486;DHT22;4781;48.776;9.200;2022-12-18T12:51:08;-1.40;99.90
9486;DHT22;4781;48.776;9.200;2022-12-18T12:53:50;-1.40;99.90
9486;DHT22;4781;48.776;9.200;2022-12-18T12:56:21;-1.40;99.90
9486;DHT22;4781;48.776;9.200;2022-12-18T12:59:01;-1.50;99.90
9486;DHT22;4781;48.776;9.200;2022-12-18T13:01:39;-1.60;99.90
9486;DHT22;4781;48.776;9.200;2022-12-18T13:04:36;-1.60;99.90
9486;DHT22;4781;48.776;9.200;2022-12-18T13:10:46;-1.50;99.90
9486;DHT22;4781;48.776;9.200;2022-12-18T13:13:29;-1.60;99.90
9486;DHT22;4781;48.776;9.200;2022-12-18T13:16:07;-1.50;99.90
9486;DHT22;4781;48.776;9.200;2022-12-18T13:18:37;-1.50;99.90
9486;DHT22;4781;48.776;9.200;2022-12-18T13:21:18;-1.50;99.90
9486;DHT22;4781;48.776;9.200;2022-12-18T13:26:53;-1.40;99.90
9486;DHT22;4781;48.776;9.200;2022-12-18T13:29:44;-1.40;99.90
9486;DHT22;4781;48.776;9.200;2022-12-18T13:32:21;-1.30;99.90
9486;DHT22;4781;48.776;9.200;2022-12-18T13:37:54;-1.20;99.90
9486;DHT22;4781;48.776;9.200;2022-12-18T13:40:53;-1.10;99.90
9486;DHT22;4781;48.776;9.200;2022-12-18T13:43:33;-1.10;99.90
9486;DHT22;4781;48.776;9.200;2022-12-18T13:46:29;-1.10;99.90
9486;DHT22;4781;48.776;9.200;2022-12-18T13:49:19;-1.10;99.90
9486;DHT22;4781;48.776;9.200;2022-12-18T13:51:54;-1.10;99.90
9486;DHT22;4781;48.776;9.200;2022-12-18T13:54:29;-1.10;99.90
9486;DHT22;4781;48.776;9.200;2022-12-18T13:56:59;-1.10;99.90
9486;DHT22;4781;48.776;9.200;2022-12-18T13:59:38;-1.10;99.90
9486;DHT22;4781;48.776;9.200;2022-12-18T14:02:16;-1.00;99.90
9486;DHT22;4781;48.776;9.200;2022-12-18T14:04:46;-1.00;99.90
9486;DHT22;4781;48.776;9.200;2022-12-18T14:07:24;-1.00;99.90
9486;DHT22;4781;48.776;9.200;2022-12-18T14:09:55;-1.10;99.90
9486;DHT22;4781;48.776;9.200;2022-12-18T14:12:31;-1.10;99.90
9486;DHT22;4781;48.776;9.200;2022-12-18T14:21:03;-1.10;99.90
9486;DHT22;4781;48.776;9.200;2022-12-18T14:26:32;-1.10;99.90
9486;DHT22;4781;48.776;9.200;2022-12-18T14:32:12;-1.10;99.90
9486;DHT22;4781;48.776;9.200;2022-12-18T14:34:50;-1.10;99.90
9486;DHT22;4781;48.776;9.200;2022-12-18T14:37:21;-1.20;99.90
9486;DHT22;4781;48.776;9.200;2022-12-18T14:42:43;-1.20;99.90
9486;DHT22;4781;48.776;9.200;2022-12-18T14:50:43;-1.40;99.90
9486;DHT22;4781;48.776;9.200;2022-12-18T14:53:26;-1.50;99.90
9486;DHT22;4781;48.776;9.200;2022-12-18T14:55:57;-1.50;99.90
9486;DHT22;4781;48.776;9.200;2022-12-18T14:58:25;-1.50;99.90
9486;DHT22;4781;48.776;9.200;2022-12-18T15:00:54;-1.60;99.90
9486;DHT22;4781;48.776;9.200;2022-12-18T15:03:22;-1.60;99.90
9486;DHT22;4781;48.776;9.200;2022-12-18T15:05:51;-1.60;99.90
9486;DHT22;4781;48.776;9.200;2022-12-18T15:08:39;-1.70;99.90
9486;DHT22;4781;48.776;9.200;2022-12-18T15:11:22;-1.80;99.90
9486;DHT22;4781;48.776;9.200;2022-12-18T15:13:35;-1.90;99.90
9486;DHT22;4781;48.776;9.200;2022-12-18T15:18:53;-2.00;99.90
9486;DHT22;4781;48.776;9.200;2022-12-18T15:21:22;-2.10;99.90
9486;DHT22;4781;48.776;9.200;2022-12-18T15:23:51;-2.10;99.90
9486;DHT22;4781;48.776;9.200;2022-12-18T15:26:21;-2.20;99.90
9486;DHT22;4781;48.776;9.200;2022-12-18T15:28:57;-2.30;99.90
9486;DHT22;4781;48.776;9.200;2022-12-18T15:31:31;-2.40;99.90
9486;DHT22;4781;48.776;9.200;2022-12-18T15:34:19;-2.40;99.90
9486;DHT22;4781;48.776;9.200;2022-12-18T15:36:50;-2.50;99.90
9486;DHT22;4781;48.776;9.200;2022-12-18T15:39:19;-2.50;99.90
9486;DHT22;4781;48.776;9.200;2022-12-18T15:41:47;-2.60;99.90
9486;DHT22;4781;48.776;9.200;2022-12-18T15:44:34;-2.60;99.90
9486;DHT22;4781;48.776;9.200;2022-12-18T15:47:08;-2.60;99.90
9486;DHT22;4781;48.776;9.200;2022-12-18T15:49:39;-2.70;99.90
9486;DHT22;4781;48.776;9.200;2022-12-18T15:52:09;-2.70;99.90
9486;DHT22;4781;48.776;9.200;2022-12-18T15:54:39;-2.70;99.90
9486;DHT22;4781;48.776;9.200;2022-12-18T15:57:25;-2.80;99.90
9486;DHT22;4781;48.776;9.200;2022-12-18T15:59:55;-2.80;99.90
9486;DHT22;4781;48.776;9.200;2022-12-18T16:02:25;-2.90;99.90
9486;DHT22;4781;48.776;9.200;2022-12-18T16:04:54;-3.00;99.90
9486;DHT22;4781;48.776;9.200;2022-12-18T16:07:23;-2.90;99.90
9486;DHT22;4781;48.776;9.200;2022-12-18T16:09:51;-3.00;99.90
9486;DHT22;4781;48.776;9.200;2022-12-18T16:12:22;-3.00;99.90
9486;DHT22;4781;48.776;9.200;2022-12-18T16:14:52;-3.00;99.90
9486;DHT22;4781;48.776;9.200;2022-12-18T16:17:20;-3.00;99.90
9486;DHT22;4781;48.776;9.200;2022-12-18T16:19:49;-3.00;99.90
9486;DHT22;4781;48.776;9.200;2022-12-18T16:22:26;-2.90;99.90
9486;DHT22;4781;48.776;9.200;2022-12-18T16:24:56;-3.00;99.90
9486;DHT22;4781;48.776;9.200;2022-12-18T16:27:25;-3.00;99.90
9486;DHT22;4781;48.776;9.200;2022-12-18T16:29:53;-3.00;99.90
9486;DHT22;4781;48.776;9.200;2022-12-18T16:32:22;-3.00;99.90
9486;DHT22;4781;48.776;9.200;2022-12-18T16:34:51;-3.00;99.90
9486;DHT22;4781;48.776;9.200;2022-12-18T16:37:19;-3.00;99.90
9486;DHT22;4781;48.776;9.200;2022-12-18T16:39:47;-2.90;99.90
9486;DHT22;4781;48.776;9.200;2022-12-18T16:42:17;-3.00;99.90
9486;DHT22;4781;48.776;9.200;2022-12-18T16:44:47;-3.00;99.90
9486;DHT22;4781;48.776;9.200;2022-12-18T16:47:17;-3.00;99.90
9486;DHT22;4781;48.776;9.200;2022-12-18T16:49:46;-3.00;99.90
9486;DHT22;4781;48.776;9.200;2022-12-18T16:52:16;-3.00;99.90
9486;DHT22;4781;48.776;9.200;2022-12-18T16:54:44;-3.00;99.90
9486;DHT22;4781;48.776;9.200;2022-12-18T16:57:15;-3.00;99.90
9486;DHT22;4781;48.776;9.200;2022-12-18T16:59:45;-3.00;99.90
9486;DHT22;4781;48.776;9.200;2022-12-18T17:02:21;-3.00;99.90
9486;DHT22;4781;48.776;9.200;2022-12-18T17:04:49;-3.00;99.90
9486;DHT22;4781;48.776;9.200;2022-12-18T17:07:23;-3.00;99.90
9486;DHT22;4781;48.776;9.200;2022-12-18T17:09:52;-3.00;99.90
9486;DHT22;4781;48.776;9.200;2022-12-18T17:12:21;-3.00;99.90
9486;DHT22;4781;48.776;9.200;2022-12-18T17:14:50;-3.10;99.90
9486;DHT22;4781;48.776;9.200;2022-12-18T17:17:18;-3.00;99.90
9486;DHT22;4781;48.776;9.200;2022-12-18T17:19:47;-3.00;99.90
9486;DHT22;4781;48.776;9.200;2022-12-18T17:22:15;-3.00;99.90
9486;DHT22;4781;48.776;9.200;2022-12-18T17:24:44;-3.00;99.90
9486;DHT22;4781;48.776;9.200;2022-12-18T17:27:14;-3.00;99.90
9486;DHT22;4781;48.776;9.200;2022-12-18T17:29:42;-3.00;99.90
9486;DHT22;4781;48.776;9.200;2022-12-18T17:32:10;-3.00;99.90
9486;DHT22;4781;48.776;9.200;2022-12-18T17:34:39;-3.00;99.90
9486;DHT22;4781;48.776;9.200;2022-12-18T17:37:08;-3.00;99.90
9486;DHT22;4781;48.776;9.200;2022-12-18T17:39:36;-3.00;99.90
9486;DHT22;4781;48.776;9.200;2022-12-18T17:42:25;-3.00;99.90
9486;DHT22;4781;48.776;9.200;2022-12-18T17:44:53;-3.00;99.90
9486;DHT22;4781;48.776;9.200;2022-12-18T17:47:22;-2.90;99.90
9486;DHT22;4781;48.776;9.200;2022-12-18T17:49:50;-2.90;99.90
9486;DHT22;4781;48.776;9.200;2022-12-18T17:52:19;-2.90;99.90
9486;DHT22;4781;48.776;9.200;2022-12-18T17:54:47;-3.00;99.90
9486;DHT22;4781;48.776;9.200;2022-12-18T17:57:16;-3.00;99.90
9486;DHT22;4781;48.776;9.200;2022-12-18T17:59:44;-2.90;99.90
9486;DHT22;4781;48.776;9.200;2022-12-18T18:02:12;-2.90;99.90
9486;DHT22;4781;48.776;9.200;2022-12-18T18:04:41;-2.90;99.90
9486;DHT22;4781;48.776;9.200;2022-12-18T18:07:09;-2.90;99.90
9486;DHT22;4781;48.776;9.200;2022-12-18T18:09:37;-2.90;99.90
9486;DHT22;4781;48.776;9.200;2022-12-18T18:12:07;-2.90;99.90
9486;DHT22;4781;48.776;9.200;2022-12-18T18:14:53;-2.90;99.90
9486;DHT22;4781;48.776;9.200;2022-12-18T18:17:23;-2.90;99.90
9486;DHT22;4781;48.776;9.200;2022-12-18T18:19:51;-2.90;99.90
9486;DHT22;4781;48.776;9.200;2022-12-18T18:22:20;-2.90;99.90
9486;DHT22;4781;48.776;9.200;2022-12-18T18:24:48;-2.90;99.90
9486;DHT22;4781;48.776;9.200;2022-12-18T18:27:16;-2.90;99.90
9486;DHT22;4781;48.776;9.200;2022-12-18T18:29:45;-2.90;99.90
9486;DHT22;4781;48.776;9.200;2022-12-18T18:32:13;-2.80;99.90
9486;DHT22;4781;48.776;9.200;2022-12-18T18:34:42;-2.80;99.90